Time;durP1;ratioP1;P1;durP2;ratioP2;P2;SDS_P1;SDS_P2;PMS_P1;PMS_P2;Temp;Humidity;BMP_temperature;BMP_pressure;BME280_temperature;BME280_humidity;BME280_pressure;Samples;Min_cycle;Max_cycle;Signal;HPM_P1;HPM_P2
2022/06/23 00:01:54;;;;;;;11.73;7.65;;;;;;;21.41;46.21;99884.34;5006451;28;101895;-79
2022/06/23 00:04:22;;;;;;;8.32;7.38;;;;;;;21.39;46.17;99885.44;5005516;28;101162;-78
2022/06/23 00:06:54;;;;;;;8.98;7.35;;;;;;;21.46;46.34;99906.13;5001409;28;97265;-79
2022/06/23 00:09:48;;;;;;;8.40;7.53;;;;;;;21.42;46.27;99902.03;5013294;28;97164;-79
2022/06/23 00:12:19;;;;;;;10.50;7.35;;;;;;;21.25;46.52;99886.59;4988725;28;101278;-79
2022/06/23 00:14:48;;;;;;;8.38;7.35;;;;;;;21.28;46.79;99894.34;5025240;28;97588;-79
2022/06/23 00:17:23;;;;;;;8.02;7.43;;;;;;;21.22;46.44;99895.69;5011317;28;97330;-78
2022/06/23 00:19:49;;;;;;;9.93;7.47;;;;;;;21.23;46.82;99902.75;5003447;28;96809;-78
2022/06/23 00:22:18;;;;;;;10.20;7.53;;;;;;;21.18;46.87;99894.28;5009834;28;101399;-78
2022/06/23 00:24:45;;;;;;;8.02;7.32;;;;;;;21.19;47.08;99903.13;5010054;28;101117;-78
2022/06/23 00:27:15;;;;;;;11.25;8.10;;;;;;;21.18;46.81;99912.13;5013210;28;97209;-78
2022/06/23 00:29:44;;;;;;;8.33;7.53;;;;;;;21.11;47.16;99908.25;4997218;28;97146;-78
2022/06/23 00:32:10;;;;;;;8.10;7.32;;;;;;;21.10;47.27;99907.41;5027203;28;98591;-78
2022/06/23 00:35:00;;;;;;;10.32;7.10;;;;;;;21.02;47.33;99905.38;4992809;28;101171;-78
2022/06/23 00:37:26;;;;;;;10.23;7.75;;;;;;;21.00;47.35;99911.81;4995228;28;97483;-79
2022/06/23 00:39:56;;;;;;;8.27;7.60;;;;;;;20.98;47.27;99909.31;5003419;28;97453;-78
2022/06/23 00:42:30;;;;;;;8.88;8.07;;;;;;;20.85;47.35;99895.28;4992157;28;99903;-79
2022/06/23 00:45:00;;;;;;;8.75;7.93;;;;;;;21.00;47.25;99914.50;4991986;28;101100;-78
2022/06/23 00:47:35;;;;;;;9.18;7.47;;;;;;;20.89;47.28;99898.56;4985008;28;97296;-79
2022/06/23 00:50:33;;;;;;;8.10;7.30;;;;;;;20.92;47.48;99919.66;5007983;28;97221;-79
2022/06/23 00:53:15;;;;;;;9.82;8.45;;;;;;;20.91;47.69;99928.59;4992178;28;101467;-78
2022/06/23 00:55:55;;;;;;;9.15;8.25;;;;;;;20.86;47.28;99931.69;4989935;28;101328;-81
2022/06/23 00:58:26;;;;;;;8.35;7.50;;;;;;;20.78;47.66;99916.28;5021512;28;97434;-78
2022/06/23 01:00:56;;;;;;;8.52;7.75;;;;;;;20.77;47.70;99927.94;5021825;28;98830;-79
2022/06/23 01:03:29;;;;;;;9.13;8.23;;;;;;;20.80;47.89;99929.53;4988939;28;101199;-78
2022/06/23 01:06:15;;;;;;;11.98;7.45;;;;;;;20.73;48.03;99926.50;4987772;28;100986;-78
2022/06/23 01:08:47;;;;;;;9.20;8.32;;;;;;;20.76;48.00;99925.41;4994466;28;100094;-78
2022/06/23 01:11:34;;;;;;;9.32;8.45;;;;;;;20.54;48.25;99900.50;5002065;28;98106;-78
2022/06/23 01:14:18;;;;;;;8.23;7.43;;;;;;;20.72;47.94;99934.63;5023874;28;101764;-78
2022/06/23 01:16:54;;;;;;;8.93;8.00;;;;;;;20.69;48.03;99933.06;5013014;28;100847;-81
2022/06/23 01:19:57;;;;;;;9.43;8.48;;;;;;;20.48;48.17;99924.13;5003150;28;97119;-79
2022/06/23 01:22:54;;;;;;;8.45;7.75;;;;;;;20.47;48.39;99939.25;5011756;28;97125;-81
2022/06/23 01:25:22;;;;;;;8.75;8.00;;;;;;;20.47;48.43;99941.94;5020083;27;97930;-78
2022/06/23 01:28:00;;;;;;;9.00;8.18;;;;;;;20.46;48.36;99937.56;5011901;28;101221;-78
2022/06/23 01:30:31;;;;;;;8.68;7.95;;;;;;;20.45;48.36;99935.03;4995343;28;97942;-79
2022/06/23 01:33:03;;;;;;;9.30;8.23;;;;;;;20.43;48.56;99937.81;5030043;28;97575;-78
2022/06/23 01:35:32;;;;;;;10.02;8.80;;;;;;;20.36;48.45;99928.63;5012051;28;101582;-79
2022/06/23 01:38:02;;;;;;;8.82;7.97;;;;;;;20.39;48.41;99933.72;5013656;28;101485;-78
2022/06/23 01:40:53;;;;;;;8.30;7.55;;;;;;;20.31;48.64;99934.34;5008913;28;98382;-79
2022/06/23 01:43:22;;;;;;;8.32;7.63;;;;;;;20.23;48.40;99918.13;5012486;28;97122;-78
2022/06/23 01:46:17;;;;;;;9.63;8.30;;;;;;;20.29;48.61;99944.25;5025202;28;97436;-79
2022/06/23 01:48:53;;;;;;;10.18;8.90;;;;;;;20.29;48.77;99948.75;5006878;28;101017;-79
2022/06/23 01:51:28;;;;;;;9.27;8.35;;;;;;;20.22;48.87;99945.75;5007943;28;97314;-78
2022/06/23 01:54:21;;;;;;;7.88;7.28;;;;;;;20.23;49.08;99943.91;4992441;28;97328;-78
2022/06/23 01:57:03;;;;;;;8.45;7.75;;;;;;;20.24;49.14;99950.94;5028823;27;97546;-78
2022/06/23 01:59:41;;;;;;;8.82;8.13;;;;;;;20.23;49.21;99951.91;5004621;28;97916;-79
2022/06/23 02:02:10;;;;;;;8.60;7.90;;;;;;;20.25;49.01;99952.66;5011858;28;97000;-78
2022/06/23 02:04:43;;;;;;;10.02;9.10;;;;;;;20.24;49.17;99961.59;5011687;28;97241;-78
2022/06/23 02:07:15;;;;;;;9.52;8.50;;;;;;;20.18;49.38;99954.09;5022504;28;98674;-78
2022/06/23 02:09:53;;;;;;;9.88;8.27;;;;;;;20.18;49.48;99957.59;4997045;28;100506;-78
2022/06/23 02:12:27;;;;;;;9.70;8.70;;;;;;;20.10;49.19;99954.69;5018027;28;96822;-78
2022/06/23 02:14:56;;;;;;;9.20;8.50;;;;;;;20.12;49.48;99966.94;5022532;28;97118;-79
2022/06/23 02:17:46;;;;;;;9.63;8.82;;;;;;;20.08;49.46;99964.66;5014557;28;101585;-79
2022/06/23 02:20:43;;;;;;;12.77;8.95;;;;;;;20.04;49.52;99969.38;4999102;28;101870;-79
2022/06/23 02:23:16;;;;;;;9.40;8.50;;;;;;;19.97;49.84;99959.31;5027794;28;97312;-79
2022/06/23 02:25:51;;;;;;;11.32;9.15;;;;;;;19.95;49.73;99964.75;5030074;27;97172;-78
2022/06/23 02:28:43;;;;;;;9.38;8.48;;;;;;;19.87;49.73;99960.03;5005092;28;101590;-80
2022/06/23 02:31:23;;;;;;;8.85;7.70;;;;;;;19.97;49.76;99976.13;4972857;28;97608;-79
2022/06/23 02:33:54;;;;;;;10.52;7.93;;;;;;;19.98;49.72;99980.50;4987439;28;97362;-78
2022/06/23 02:36:36;;;;;;;8.52;7.65;;;;;;;19.93;49.87;99984.50;5001325;28;97421;-79
2022/06/23 02:39:15;;;;;;;9.68;8.80;;;;;;;19.82;49.98;99986.19;4990807;28;101277;-78
2022/06/23 02:41:47;;;;;;;10.45;9.25;;;;;;;19.82;50.14;99990.66;5002296;28;101423;-78
2022/06/23 02:44:18;;;;;;;10.70;8.65;;;;;;;19.84;50.26;99989.59;4980206;28;97250;-78
2022/06/23 02:46:56;;;;;;;9.55;8.63;;;;;;;19.77;50.36;99992.81;5005674;28;100219;-79
2022/06/23 02:50:07;;;;;;;14.32;9.15;;;;;;;19.72;50.57;99998.50;5019144;28;101289;-80
2022/06/23 02:52:42;;;;;;;10.47;9.47;;;;;;;19.72;50.38;99995.00;4985628;28;97544;-78
2022/06/23 02:55:27;;;;;;;10.82;8.70;;;;;;;19.55;50.87;99989.13;5008402;28;97384;-79
2022/06/23 02:57:59;;;;;;;10.02;9.05;;;;;;;19.57;50.88;99989.84;5012125;28;97438;-79
2022/06/23 03:00:25;;;;;;;11.13;9.80;;;;;;;19.57;51.00;100007.63;5004195;28;99635;-78
2022/06/23 03:03:22;;;;;;;9.23;8.32;;;;;;;19.55;51.19;100006.94;5025229;28;100933;-79
2022/06/23 03:06:15;;;;;;;9.63;8.82;;;;;;;19.41;51.23;99992.00;5004254;28;97245;-78
2022/06/23 03:08:51;;;;;;;10.00;8.70;;;;;;;19.44;51.16;100015.72;5017468;28;97032;-80
2022/06/23 03:11:51;;;;;;;9.45;8.57;;;;;;;19.42;51.27;100002.50;4992100;28;101314;-80
2022/06/23 03:14:24;;;;;;;10.27;9.07;;;;;;;19.49;51.25;100010.03;5020717;28;98418;-81
2022/06/23 03:16:53;;;;;;;11.20;9.85;;;;;;;19.47;51.27;100017.31;5015031;28;97409;-80
2022/06/23 03:19:25;;;;;;;12.20;9.50;;;;;;;19.45;51.31;100001.44;5000243;28;97014;-78
2022/06/23 03:21:55;;;;;;;9.52;8.63;;;;;;;19.37;51.52;100004.69;4987155;28;101511;-80
2022/06/23 03:24:29;;;;;;;10.00;9.10;;;;;;;19.30;51.39;100002.59;4991324;28;101495;-78
2022/06/23 03:26:59;;;;;;;9.75;8.73;;;;;;;19.49;51.77;100026.00;4995608;28;96870;-78
2022/06/23 03:29:31;;;;;;;9.90;8.98;;;;;;;19.54;51.44;100026.50;4988127;28;97208;-81
2022/06/23 03:32:12;;;;;;;10.10;9.10;;;;;;;19.55;51.44;100030.88;5006969;28;98241;-81
2022/06/23 03:34:54;;;;;;;10.32;9.38;;;;;;;19.57;51.47;100031.59;5005748;28;101228;-80
2022/06/23 03:37:41;;;;;;;11.70;9.77;;;;;;;19.43;51.45;100011.34;5003217;27;97760;-80
2022/06/23 03:43:20;;;;;;;10.25;9.32;;;;;;;19.61;51.26;100020.59;5022264;28;98002;-78
2022/06/23 03:45:51;;;;;;;11.88;9.57;;;;;;;19.70;51.31;100032.41;5022753;28;97986;-79
2022/06/23 03:48:25;;;;;;;9.63;8.82;;;;;;;19.72;51.27;100035.78;5000892;28;97061;-79
2022/06/23 03:51:15;;;;;;;9.98;9.27;;;;;;;19.78;51.40;100045.09;5008015;28;97329;-81
2022/06/23 03:54:26;;;;;;;12.05;9.68;;;;;;;19.74;51.30;100033.84;5009105;28;103351;-81
2022/06/23 03:57:05;;;;;;;9.63;8.65;;;;;;;19.67;51.50;100041.47;4950443;28;97827;-77
2022/06/23 03:59:41;;;;;;;10.20;9.07;;;;;;;19.79;51.32;100041.50;4932650;28;98290;-78
2022/06/23 04:02:16;;;;;;;10.00;8.98;;;;;;;19.76;51.40;100023.94;4975864;28;97140;-80
2022/06/23 04:04:51;;;;;;;10.48;9.48;;;;;;;19.92;51.43;100038.72;5025543;28;97625;-81
2022/06/23 04:07:29;;;;;;;10.48;9.43;;;;;;;19.95;51.49;100049.16;5024038;28;101262;-77
2022/06/23 04:10:19;;;;;;;14.73;10.43;;;;;;;19.85;51.55;100043.69;5012111;28;97334;-77
2022/06/23 04:12:47;;;;;;;11.02;9.88;;;;;;;19.91;51.21;100040.53;5021695;28;97501;-81
2022/06/23 04:15:17;;;;;;;14.63;10.45;;;;;;;19.96;51.43;100038.38;4998680;28;98122;-78
2022/06/23 04:17:57;;;;;;;10.70;9.73;;;;;;;19.94;51.27;100042.13;4993407;28;100810;-77
2022/06/23 04:20:38;;;;;;;11.48;9.57;;;;;;;19.72;51.80;100035.78;5003206;28;97386;-78
2022/06/23 04:23:20;;;;;;;11.00;10.00;;;;;;;19.73;52.09;100053.47;4988440;28;97362;-77
2022/06/23 04:25:56;;;;;;;12.02;10.50;;;;;;;19.82;51.93;100055.41;4990886;28;101084;-81
2022/06/23 04:28:36;;;;;;;11.40;10.30;;;;;;;20.08;51.55;100057.91;5008279;28;98053;-80
2022/06/23 04:31:05;;;;;;;10.48;9.60;;;;;;;20.07;51.49;100056.19;4993221;28;97403;-81
2022/06/23 04:33:35;;;;;;;11.07;10.02;;;;;;;19.94;51.55;100040.31;4989967;28;97303;-79
2022/06/23 04:36:01;;;;;;;11.02;9.93;;;;;;;20.10;51.32;100051.47;4993177;28;102228;-78
2022/06/23 04:38:30;;;;;;;10.70;9.80;;;;;;;20.15;51.17;100059.09;5005311;28;101377;-79
2022/06/23 04:41:30;;;;;;;11.30;9.95;;;;;;;20.25;51.33;100059.25;5024413;28;97237;-78
2022/06/23 04:44:01;;;;;;;10.93;9.77;;;;;;;20.32;51.22;100068.44;5004484;28;97451;-78
2022/06/23 04:46:31;;;;;;;;;;;;;;;20.35;51.47;100066.38;4991266;28;101776;-78
2022/06/23 04:49:18;;;;;;;11.60;10.70;;;;;;;20.43;51.29;100067.59;4992074;27;101237;-78
2022/06/23 04:52:03;;;;;;;10.90;9.90;;;;;;;20.56;51.14;100071.00;4991155;28;97407;-78
2022/06/23 04:54:50;;;;;;;14.45;9.80;;;;;;;20.74;50.89;100076.69;4997271;28;97268;-78
2022/06/23 04:57:28;;;;;;;12.95;9.35;;;;;;;20.86;50.94;100070.38;5027401;28;101180;-78
2022/06/23 04:59:55;;;;;;;10.10;9.10;;;;;;;20.90;50.76;100076.31;5009402;28;101419;-77
2022/06/23 05:02:31;;;;;;;9.75;8.95;;;;;;;21.05;50.81;100082.22;5012401;28;97421;-78
2022/06/23 05:05:00;;;;;;;10.13;9.07;;;;;;;21.35;50.23;100081.50;5025396;28;97987;-77
2022/06/23 05:07:28;;;;;;;10.32;9.02;;;;;;;21.54;50.14;100097.75;5010789;28;101070;-77
2022/06/23 05:10:02;;;;;;;12.00;10.02;;;;;;;21.74;49.43;100087.22;5022143;27;97979;-80
2022/06/23 05:12:40;;;;;;;10.50;9.50;;;;;;;21.78;48.94;100083.28;4996018;28;97348;-77
2022/06/23 05:15:09;;;;;;;11.35;10.23;;;;;;;21.89;48.89;100091.25;5027316;28;97043;-79
2022/06/23 05:17:41;;;;;;;10.93;9.30;;;;;;;21.88;49.06;100081.56;5028208;28;101364;-79
2022/06/23 05:20:07;;;;;;;11.48;10.38;;;;;;;22.11;48.89;100071.56;5011632;28;101396;-79
2022/06/23 05:22:37;;;;;;;11.52;9.50;;;;;;;22.42;48.11;100101.00;4992275;28;99861;-77
2022/06/23 05:25:15;;;;;;;12.82;9.73;;;;;;;22.51;47.90;100102.88;5009951;28;100431;-77
2022/06/23 05:27:43;;;;;;;11.80;9.75;;;;;;;22.60;47.81;100102.06;5027337;28;98169;-77
2022/06/23 05:30:27;;;;;;;10.38;9.48;;;;;;;22.73;47.78;100102.69;5019318;28;97781;-79
2022/06/23 05:33:04;;;;;;;11.98;9.30;;;;;;;22.97;47.24;100096.16;5006342;28;97461;-76
2022/06/23 05:35:39;;;;;;;13.55;9.32;;;;;;;23.07;47.00;100081.00;5042623;27;97815;-76
2022/06/23 05:38:16;;;;;;;9.98;8.93;;;;;;;23.53;46.53;100103.56;5005488;28;101380;-80
2022/06/23 05:40:52;;;;;;;9.60;8.90;;;;;;;23.76;45.52;100088.06;5015082;28;102455;-80
2022/06/23 05:43:18;;;;;;;9.98;8.98;;;;;;;23.92;45.45;100088.34;5009175;28;98183;-80
2022/06/23 05:45:59;;;;;;;10.15;8.70;;;;;;;24.11;44.80;100095.47;4995162;28;96938;-77
2022/06/23 05:48:37;;;;;;;9.77;8.90;;;;;;;24.48;44.62;100099.22;4991038;28;101585;-80
2022/06/23 05:51:09;;;;;;;10.27;9.38;;;;;;;24.77;43.68;100110.69;5006046;28;101749;-79
2022/06/23 05:53:41;;;;;;;10.15;9.35;;;;;;;24.98;43.54;100114.94;5026660;28;97368;-81
2022/06/23 05:56:15;;;;;;;10.30;9.15;;;;;;;25.32;42.74;100120.56;5030686;27;97695;-79
2022/06/23 05:58:51;;;;;;;10.00;9.10;;;;;;;25.63;42.18;100122.91;5010472;28;101973;-77
2022/06/23 06:01:25;;;;;;;10.18;9.18;;;;;;;25.86;41.47;100121.44;5010887;28;99656;-76
2022/06/23 06:03:54;;;;;;;11.98;8.70;;;;;;;26.04;41.40;100125.94;5011647;28;97275;-82
2022/06/23 06:06:20;;;;;;;10.07;9.07;;;;;;;26.15;41.13;100120.28;5008543;28;97960;-80
2022/06/23 06:11:37;;;;;;;10.13;8.40;;;;;;;26.30;40.36;100109.81;5017103;28;101544;-82
2022/06/23 06:14:03;;;;;;;9.55;8.52;;;;;;;26.41;40.18;100123.84;5010754;28;98619;-83
2022/06/23 06:16:29;;;;;;;9.40;8.45;;;;;;;26.85;39.70;100121.06;5013224;28;96826;-79
2022/06/23 06:18:55;;;;;;;11.48;8.75;;;;;;;26.89;39.54;100131.50;5010246;28;97753;-82
2022/06/23 06:21:23;;;;;;;9.93;9.02;;;;;;;27.21;38.31;100123.56;5008040;28;98873;-83
2022/06/23 06:24:06;;;;;;;13.75;9.38;;;;;;;27.07;38.65;100127.69;5021191;28;97293;-83
2022/06/23 06:26:35;;;;;;;10.70;9.40;;;;;;;27.35;38.77;100124.78;5009922;28;96892;-83
2022/06/23 06:29:14;;;;;;;9.77;8.85;;;;;;;27.70;37.55;100128.19;5025125;28;97644;-83
2022/06/23 06:31:46;;;;;;;9.60;8.68;;;;;;;28.41;37.27;100124.78;5004850;28;101786;-83
2022/06/23 06:34:16;;;;;;;13.60;9.90;;;;;;;28.59;36.81;100096.72;5011034;28;97280;-82
2022/06/23 06:36:43;;;;;;;;;;;;;;;29.36;36.12;100137.41;5023560;28;97076;-82
2022/06/23 06:39:11;;;;;;;9.88;8.77;;;;;;;29.83;34.97;100124.78;4991403;28;101166;-83
2022/06/23 06:41:38;;;;;;;11.85;9.20;;;;;;;30.30;34.47;100129.94;5028988;28;98108;-83
2022/06/23 06:44:04;;;;;;;10.13;8.75;;;;;;;30.71;32.37;100110.50;5028127;28;97567;-83
2022/06/23 06:46:30;;;;;;;11.93;8.45;;;;;;;30.82;33.37;100126.31;4990995;28;97369;-83
2022/06/23 06:48:57;;;;;;;11.05;10.00;;;;;;;31.13;32.66;100131.50;5004017;28;98103;-82
2022/06/23 06:51:25;;;;;;;10.23;8.77;;;;;;;31.51;32.44;100117.78;5027984;27;97986;-83
2022/06/23 06:54:00;;;;;;;9.73;8.98;;;;;;;31.94;31.82;100122.34;5014348;28;98699;-83
2022/06/23 06:56:48;;;;;;;10.77;9.65;;;;;;;32.30;31.02;100122.22;5027996;28;97024;-82
2022/06/23 06:59:32;;;;;;;9.30;8.55;;;;;;;32.91;30.13;100122.34;5005927;28;101083;-82
2022/06/23 07:02:12;;;;;;;10.65;8.45;;;;;;;33.11;29.17;100127.91;5027402;28;97506;-83
2022/06/23 07:04:44;;;;;;;8.93;8.32;;;;;;;33.03;29.44;100125.38;4993082;28;98536;-81
2022/06/23 07:07:13;;;;;;;9.55;8.65;;;;;;;33.35;29.26;100128.38;5009418;28;97250;-82
2022/06/23 07:09:46;;;;;;;11.48;9.00;;;;;;;34.03;28.74;100125.53;5002556;28;97624;-82
2022/06/23 07:12:29;;;;;;;10.32;9.63;;;;;;;34.18;27.68;100130.81;4998298;28;101592;-83
2022/06/23 07:15:11;;;;;;;11.30;9.38;;;;;;;34.29;27.33;100132.06;4994469;28;98160;-84
2022/06/23 07:17:43;;;;;;;10.75;9.65;;;;;;;34.66;27.47;100133.25;5000602;28;97315;-85
2022/06/23 07:20:24;;;;;;;10.30;9.48;;;;;;;34.84;27.12;100138.03;5007923;28;101253;-81
2022/06/23 07:23:23;;;;;;;10.30;9.38;;;;;;;34.72;27.36;100139.75;5013363;28;101865;-82
2022/06/23 07:25:57;;;;;;;10.27;9.47;;;;;;;35.26;27.27;100143.97;4993547;28;97094;-81
2022/06/23 07:28:35;;;;;;;10.77;9.75;;;;;;;35.80;26.46;100145.28;4998375;28;97125;-84
2022/06/23 07:31:09;;;;;;;10.23;9.43;;;;;;;36.10;26.07;100150.97;5019963;28;98141;-81
2022/06/23 07:33:42;;;;;;;10.15;9.07;;;;;;;36.40;26.07;100140.16;5007726;28;99133;-81
2022/06/23 07:36:13;;;;;;;12.63;9.32;;;;;;;36.68;25.03;100147.91;5022073;28;96848;-81
2022/06/23 07:38:58;;;;;;;10.77;9.40;;;;;;;36.49;25.06;100132.50;5016600;28;96837;-82
2022/06/23 07:41:34;;;;;;;10.43;9.30;;;;;;;36.73;24.94;100139.00;5022050;28;97786;-81
2022/06/23 07:44:03;;;;;;;10.85;9.88;;;;;;;37.14;25.03;100121.03;5026135;27;101154;-81
2022/06/23 07:46:31;;;;;;;9.93;9.25;;;;;;;37.51;24.57;100135.50;5025461;28;97207;-81
2022/06/23 07:48:56;;;;;;;10.45;9.50;;;;;;;37.80;24.25;100141.97;5028778;28;98103;-81
2022/06/23 07:51:22;;;;;;;10.30;9.32;;;;;;;38.00;23.87;100138.94;5004068;28;99350;-81
2022/06/23 07:53:50;;;;;;;9.63;8.85;;;;;;;38.08;23.90;100145.13;5007704;28;99556;-81
2022/06/23 07:56:22;;;;;;;10.32;9.52;;;;;;;38.23;23.25;100146.34;5002595;28;96756;-81
2022/06/23 07:58:50;;;;;;;10.40;9.60;;;;;;;38.65;22.95;100148.94;5005862;28;97384;-82
2022/06/23 08:01:28;;;;;;;10.93;9.90;;;;;;;38.88;21.74;100134.38;5025217;28;97434;-81
2022/06/23 08:03:57;;;;;;;10.23;9.45;;;;;;;39.03;22.36;100142.06;5007344;28;98304;-81
2022/06/23 08:06:24;;;;;;;10.07;9.38;;;;;;;38.96;21.90;100138.66;5029257;28;96817;-81
2022/06/23 08:08:54;;;;;;;9.35;8.65;;;;;;;39.45;21.82;100143.72;5023647;28;96973;-81
2022/06/23 08:14:11;;;;;;;10.10;9.30;;;;;;;40.10;21.35;100156.94;5026478;28;98454;-82
2022/06/23 08:16:49;;;;;;;9.95;9.25;;;;;;;40.23;20.86;100145.66;5017233;28;97196;-81
2022/06/23 08:19:24;;;;;;;10.10;9.40;;;;;;;40.36;20.30;100143.63;5010393;28;98252;-81
2022/06/23 08:21:59;;;;;;;10.82;9.93;;;;;;;40.38;20.41;100134.03;5020580;28;101516;-82
2022/06/23 08:24:25;;;;;;;10.82;10.00;;;;;;;40.56;20.09;100143.91;4991833;28;101694;-81
2022/06/23 08:27:10;;;;;;;11.23;10.10;;;;;;;40.60;20.18;100135.97;5016339;28;97541;-81
2022/06/23 08:29:41;;;;;;;9.90;9.30;;;;;;;40.88;19.63;100143.25;5006555;28;97372;-81
2022/06/23 08:32:07;;;;;;;10.27;9.57;;;;;;;41.10;18.80;100151.50;5015495;28;97518;-82
2022/06/23 08:34:34;;;;;;;10.18;9.50;;;;;;;39.45;19.57;100146.44;5001410;28;97386;-85
2022/06/23 08:37:14;;;;;;;10.05;9.38;;;;;;;39.28;19.97;100144.50;5010502;28;97447;-85
2022/06/23 08:39:49;;;;;;;10.38;9.63;;;;;;;40.13;19.61;100150.94;5000822;28;98116;-85
2022/06/23 08:42:19;;;;;;;9.23;8.73;;;;;;;40.34;19.13;100146.59;4992734;28;101568;-85
2022/06/23 08:45:15;;;;;;;10.05;9.35;;;;;;;40.01;19.52;100148.28;5026151;28;102445;-85
2022/06/23 08:47:40;;;;;;;10.32;9.63;;;;;;;40.02;19.36;100146.38;4993968;28;96892;-86
2022/06/23 08:50:12;;;;;;;10.32;9.63;;;;;;;39.78;19.97;100142.97;5027428;28;97431;-88
2022/06/23 08:52:50;;;;;;;10.02;9.13;;;;;;;39.93;19.78;100143.22;5000602;28;98640;-88
2022/06/23 08:55:18;;;;;;;9.70;8.90;;;;;;;39.94;19.54;100135.78;4993432;28;101188;-87
2022/06/23 08:57:47;;;;;;;10.07;9.25;;;;;;;39.74;19.49;100139.88;5007976;28;96761;-87
2022/06/23 09:00:21;;;;;;;9.95;9.32;;;;;;;39.54;19.22;100142.25;5012057;28;96897;-87
2022/06/23 09:02:49;;;;;;;9.50;8.80;;;;;;;38.44;19.60;100130.38;5029482;28;98574;-86
2022/06/23 09:05:28;;;;;;;9.75;9.02;;;;;;;38.12;20.44;100125.25;5021687;28;101521;-87
2022/06/23 09:08:03;;;;;;;9.82;9.10;;;;;;;38.24;19.92;100125.25;4995140;28;97374;-88
2022/06/23 09:10:57;;;;;;;9.27;8.70;;;;;;;38.07;20.49;100125.13;5021457;28;96910;-88
2022/06/23 09:13:34;;;;;;;9.45;8.85;;;;;;;37.82;21.32;100122.59;5005196;28;97984;-88
2022/06/23 09:16:19;;;;;;;9.43;8.73;;;;;;;37.68;21.67;100121.13;5014861;28;101301;-89
2022/06/23 09:19:26;;;;;;;10.02;9.00;;;;;;;37.69;20.94;100126.34;5011801;28;97240;-89
2022/06/23 09:22:29;;;;;;;8.93;8.18;;;;;;;37.08;21.00;100130.19;4982741;28;97252;-89
2022/06/23 09:25:07;;;;;;;8.73;8.18;;;;;;;36.45;21.26;100134.00;5027536;28;98615;-89
2022/06/23 09:27:50;;;;;;;8.77;7.97;;;;;;;35.83;22.38;100134.75;4993218;28;101346;-80
2022/06/23 09:30:28;;;;;;;9.93;8.95;;;;;;;35.64;23.25;100137.66;5009028;28;97981;-85
2022/06/23 09:32:58;;;;;;;9.48;8.60;;;;;;;35.40;23.33;100134.63;5019646;28;97195;-83
2022/06/23 09:35:40;;;;;;;9.43;8.60;;;;;;;35.20;22.82;100134.75;5013388;28;97538;-82
2022/06/23 09:38:27;;;;;;;8.60;8.00;;;;;;;34.99;22.83;100140.47;5029711;28;98013;-81
2022/06/23 09:41:11;;;;;;;8.80;8.10;;;;;;;34.46;23.48;100133.28;5013550;28;97354;-82
2022/06/23 09:43:58;;;;;;;10.10;8.70;;;;;;;33.95;23.95;100123.06;5032293;28;97287;-79
2022/06/23 09:46:45;;;;;;;8.93;8.23;;;;;;;33.77;24.14;100140.84;5019362;28;101676;-85
2022/06/23 09:49:11;;;;;;;8.93;8.23;;;;;;;33.79;24.57;100143.34;5006214;28;101788;-82
2022/06/23 09:52:29;;;;;;;10.10;8.30;;;;;;;33.73;24.52;100134.13;5027641;28;97249;-83
2022/06/23 09:55:24;;;;;;;9.05;8.35;;;;;;;33.50;24.88;100139.09;5003253;28;97556;-80
2022/06/23 09:58:12;;;;;;;8.75;7.95;;;;;;;33.14;24.90;100138.38;5009029;28;98279;-79
2022/06/23 10:00:47;;;;;;;8.40;7.85;;;;;;;32.89;24.71;100138.03;5011993;28;101219;-80
2022/06/23 10:03:19;;;;;;;8.88;8.27;;;;;;;32.66;25.21;100126.63;5008561;28;96922;-78
2022/06/23 10:06:11;;;;;;;8.63;7.60;;;;;;;32.54;25.58;100131.78;4994251;28;97458;-83
2022/06/23 10:08:44;;;;;;;9.23;7.75;;;;;;;32.21;25.60;100137.81;5027573;28;101046;-79
2022/06/23 10:11:30;;;;;;;8.73;7.93;;;;;;;31.94;26.29;100125.91;5001291;28;101829;-78
2022/06/23 10:14:08;;;;;;;8.40;7.70;;;;;;;32.08;25.91;100142.28;5012419;28;97097;-80
2022/06/23 10:16:48;;;;;;;8.25;7.45;;;;;;;32.01;26.43;100139.53;5008280;28;96765;-79
2022/06/23 10:19:40;;;;;;;8.38;7.68;;;;;;;31.65;26.68;100145.88;5007259;28;101488;-77
2022/06/23 10:22:30;;;;;;;8.18;7.40;;;;;;;31.17;26.65;100125.72;5010164;28;99949;-82
2022/06/23 10:25:05;;;;;;;8.50;7.70;;;;;;;31.17;27.21;100140.09;5007228;28;97559;-82
2022/06/23 10:27:49;;;;;;;8.13;7.32;;;;;;;31.04;27.12;100142.63;5027663;28;96975;-80
2022/06/23 10:30:17;;;;;;;8.30;7.50;;;;;;;30.96;27.40;100137.34;5024473;28;97941;-81
2022/06/23 10:32:52;;;;;;;8.25;7.60;;;;;;;30.87;27.61;100129.31;4984790;28;101430;-82
2022/06/23 10:35:45;;;;;;;10.50;7.75;;;;;;;30.79;27.46;100124.00;5028265;28;97364;-82
2022/06/23 10:38:28;;;;;;;8.07;7.40;;;;;;;30.76;26.76;100104.53;5003001;28;97044;-84
2022/06/23 10:41:15;;;;;;;8.05;7.40;;;;;;;30.79;27.44;100134.00;5013230;28;99821;-82
2022/06/23 10:44:05;;;;;;;8.40;7.70;;;;;;;30.56;27.90;100117.81;5031408;28;98430;-82
2022/06/23 10:46:42;;;;;;;9.40;7.90;;;;;;;30.30;27.61;100104.72;5019243;28;96890;-82
2022/06/23 10:49:33;;;;;;;9.38;8.27;;;;;;;30.34;27.58;100133.09;5007767;28;96881;-82
2022/06/23 10:52:23;;;;;;;8.90;8.00;;;;;;;30.24;27.31;100125.25;5008537;28;99446;-82
2022/06/23 10:54:58;;;;;;;8.37;7.67;;;;;;;30.00;27.73;100124.44;5000367;28;101069;-82
2022/06/23 10:57:54;;;;;;;8.30;7.63;;;;;;;29.92;27.83;100121.81;5024894;28;96829;-82
2022/06/23 11:00:23;;;;;;;9.50;7.88;;;;;;;29.85;27.64;100123.56;5010559;28;97583;-82
2022/06/23 11:03:00;;;;;;;8.13;7.43;;;;;;;29.72;27.71;100129.56;5024966;28;100927;-82
2022/06/23 11:05:47;;;;;;;7.90;7.30;;;;;;;29.68;27.37;100127.44;5006272;28;100908;-82
2022/06/23 11:08:22;;;;;;;8.27;7.53;;;;;;;29.59;27.73;100106.84;5012958;28;96839;-82
2022/06/23 11:11:03;;;;;;;8.48;7.82;;;;;;;29.75;27.51;100129.22;5019437;28;97194;-81
2022/06/23 11:13:42;;;;;;;7.70;7.30;;;;;;;29.74;27.69;100111.31;5028707;28;98510;-81
2022/06/23 11:16:14;;;;;;;8.32;7.63;;;;;;;29.60;27.68;100120.19;5004061;28;101151;-81
2022/06/23 11:19:08;;;;;;;8.35;7.75;;;;;;;29.37;28.37;100113.94;5027299;28;96730;-83
2022/06/23 11:21:59;;;;;;;7.82;7.28;;;;;;;29.19;28.54;100122.31;4994615;28;97383;-81
2022/06/23 11:24:34;;;;;;;8.40;7.78;;;;;;;29.12;28.21;100111.38;5011564;28;101328;-81
2022/06/23 11:27:16;;;;;;;8.00;7.50;;;;;;;29.04;28.89;100101.47;5019161;28;97522;-82
2022/06/23 11:30:04;;;;;;;8.00;7.40;;;;;;;29.17;28.49;100108.13;5022829;28;96839;-82
2022/06/23 11:32:54;;;;;;;8.10;7.40;;;;;;;29.32;28.51;100114.44;5007749;28;97894;-82
2022/06/23 11:35:38;;;;;;;8.73;8.00;;;;;;;29.29;28.28;100106.69;5012271;28;98099;-82
2022/06/23 11:38:28;;;;;;;8.57;7.10;;;;;;;29.26;27.94;100107.91;5010691;28;101735;-82
2022/06/23 11:41:20;;;;;;;7.93;7.25;;;;;;;28.93;27.92;100103.69;5028988;28;97269;-82
2022/06/23 11:44:06;;;;;;;8.15;7.00;;;;;;;28.86;28.02;100090.06;4996484;28;98727;-82
2022/06/23 11:46:46;;;;;;;8.15;7.43;;;;;;;29.06;28.16;100106.66;5012510;28;97527;-82
2022/06/23 11:49:15;;;;;;;8.00;7.40;;;;;;;29.07;27.57;100105.66;5019205;28;97452;-82
2022/06/23 11:52:05;;;;;;;8.23;7.57;;;;;;;29.13;27.75;100096.84;5020970;28;97279;-82
2022/06/23 11:54:58;;;;;;;7.33;6.63;;;;;;;29.11;27.18;100098.88;5026340;28;96898;-82
2022/06/23 11:57:26;;;;;;;8.43;7.72;;;;;;;29.13;27.93;100104.13;5027657;27;101290;-81
2022/06/23 12:00:08;;;;;;;7.63;7.13;;;;;;;29.04;27.64;100093.34;5025523;27;98056;-77
2022/06/23 12:03:34;;;;;;;7.78;7.20;;;;;;;29.04;27.83;100096.06;5011049;28;98290;-77
2022/06/23 12:06:09;;;;;;;6.53;6.03;;;;;;;28.98;27.76;100080.53;4924642;28;97709;-78
2022/06/23 12:08:48;;;;;;;8.68;6.75;;;;;;;29.10;27.49;100099.91;5025785;27;97587;-76
2022/06/23 12:11:14;;;;;;;7.57;6.72;;;;;;;28.97;28.20;100089.63;5002650;28;100800;-77
2022/06/23 12:13:39;;;;;;;7.63;7.03;;;;;;;29.01;28.01;100109.88;5021505;28;97123;-77
2022/06/23 12:16:05;;;;;;;7.28;6.63;;;;;;;29.01;28.16;100092.84;5027451;28;97681;-77
2022/06/23 12:19:04;;;;;;;7.70;7.03;;;;;;;28.77;29.03;100074.88;5022400;28;98146;-78